Airfield :
LOGIN :

Register | Disclaimer

   EN    FR    IT 

 










Legend :    VFR   Marginal VFR   IFR   Intensive IFR   Very Intensive IFR
Visi :
Ceiling :
>= 8 km
>= 3000ft
5 to 8 km
1000 to 3000 ft
1500m to 5 km
500 to 1000 ft
800 to 1500m
200 to 500 ft
< 800m
< 200 ft
Symbols :   Thunderstorms  Fog  Heavy snow  Heavy precipitations  Wind > 20 kt
SIGMETs :     Misc.  Thunderstorms  Icing  Turbulence  Mountain Waves  Volcanic Ashes






- Airport Elevation : 306 ft
- IATA code : EMA


EGNX - Nottingham East Midlands

CURRENT METAR :
  • 260520Z 10004KT 6000 -RA FEW004 BKN045 12/11 Q1010

EXPIRED METARs :
  • 260450Z 10005KT 6000 FEW027 12/11 Q1010
  • 260420Z 11004KT 6000 FEW035 12/11 Q1010
  • 260350Z 14004G14KT 060V200 7000 -RA FEW037 12/11 Q1011
  • 260320Z 14004KT 6000 -RA NSC 12/11 Q1011 RERA
  • 260250Z 14006KT 5000 RA SCT005 12/11 Q1011
  • 260220Z 12005KT 6000 -RA SCT006 12/11 Q1012
  • 260150Z 13006KT 9000 -RA SCT005 12/11 Q1012
  • 260050Z 09005KT 8000 BKN005 12/11 Q1012

TAF AMD TAF EGNX
Valid from the 26 at 00:00 until the 27 at 00:00 UTC


252356Z 2600/2624 09008KT 9999 SCT040
PROB30
TEMPO 2600/2603 8000 BKN006
BECMG 2603/2606 15010KT
TEMPO 2603/2609 6000 RA BKN010
PROB30
TEMPO 2606/2609 3000 +RA RADZ BKN007
BECMG 2609/2612 24012KT
TEMPO 2609/2620 6000 SHRA
PROB30
TEMPO 2610/2619 25015G25KT 3000 +SHRA +TSRAGR BKN010 BKN020CB
ATIS : +44 1332 852 852 (ext 3201)



MET'MAP, your aeronautical weather chart ! - Copyright ORBIFLY December 2007 - Disclaimer

ORBIFLY MET'MAP TEAM :

Programming & Development : Alexandra Zaïnal
Original concept : Baudouin d'Aumeries
Technical & hardware support : Manuel Goepfert
Assistance : Marc-Olivier Méhu




SOURCES & CREDITS :

   NOAA